Time;durP1;ratioP1;P1;durP2;ratioP2;P2;SDS_P1;SDS_P2;PMS_P1;PMS_P2;Temp;Humidity;BMP_temperature;BMP_pressure;BME280_temperature;BME280_humidity;BME280_pressure;Samples;Min_cycle;Max_cycle;Signal;HPM_P1;HPM_P2
2021/06/11 00:02:21;;;;;;;22.03;12.27;;;16.60;99.90;;;;;;5031714;28;20229;-89
2021/06/11 00:04:46;;;;;;;23.17;12.30;;;16.60;99.90;;;;;;5047886;28;20305;-91
2021/06/11 00:07:12;;;;;;;22.73;11.87;;;16.60;99.90;;;;;;5001487;28;20301;-90
2021/06/11 00:09:38;;;;;;;22.60;13.17;;;16.60;99.90;;;;;;5033689;28;20609;-89
2021/06/11 00:12:05;;;;;;;22.73;12.27;;;16.60;99.90;;;;;;5031643;28;20297;-91
2021/06/11 00:14:31;;;;;;;22.77;12.27;;;16.60;99.90;;;;;;5032633;28;20214;-92
2021/06/11 00:16:57;;;;;;;28.83;14.30;;;16.50;99.90;;;;;;5032157;28;21312;-91
2021/06/11 00:19:23;;;;;;;21.13;13.33;;;16.50;99.90;;;;;;5029659;28;20313;-91
2021/06/11 00:21:48;;;;;;;25.30;13.50;;;16.50;99.90;;;;;;5033719;28;20552;-90
2021/06/11 00:24:14;;;;;;;24.40;12.97;;;16.50;99.90;;;;;;5033516;28;20194;-92
2021/06/11 00:26:40;;;;;;;25.90;13.83;;;16.50;99.90;;;;;;5030645;28;20240;-92
2021/06/11 00:29:06;;;;;;;23.17;13.40;;;16.60;99.90;;;;;;5034432;28;20221;-91
2021/06/11 00:31:32;;;;;;;23.33;15.17;;;16.50;99.90;;;;;;5033057;28;20632;-92
2021/06/11 00:33:58;;;;;;;25.50;15.00;;;16.60;99.90;;;;;;5030613;28;20360;-92
2021/06/11 00:36:23;;;;;;;23.93;13.30;;;16.50;99.90;;;;;;5032045;28;20288;-92
2021/06/11 00:38:49;;;;;;;27.83;13.67;;;16.50;99.90;;;;;;5033640;28;20316;-92
2021/06/11 00:41:15;;;;;;;23.83;13.10;;;16.50;99.90;;;;;;5033452;28;20230;-93
2021/06/11 00:43:41;;;;;;;25.43;13.83;;;16.50;99.90;;;;;;5034366;28;20280;-91
2021/06/11 00:46:07;;;;;;;24.93;13.43;;;16.50;99.90;;;;;;5030948;28;20214;-93
2021/06/11 00:48:32;;;;;;;26.37;14.00;;;16.50;99.90;;;;;;5016115;28;20190;-92
2021/06/11 00:50:58;;;;;;;21.77;12.27;;;16.40;99.90;;;;;;5016397;28;20293;-90
2021/06/11 00:53:24;;;;;;;20.00;12.03;;;16.40;99.90;;;;;;5015371;28;20701;-91
2021/06/11 00:55:50;;;;;;;24.93;13.97;;;16.40;99.90;;;;;;5032732;28;20230;-91
2021/06/11 00:58:16;;;;;;;25.37;13.87;;;16.30;99.90;;;;;;5031377;28;20990;-91
2021/06/11 01:00:43;;;;;;;23.17;13.13;;;16.30;99.90;;;;;;5032826;28;20201;-91
2021/06/11 01:03:11;;;;;;;21.57;14.23;;;16.30;99.90;;;;;;5016499;28;20240;-91
2021/06/11 01:05:37;;;;;;;25.60;14.00;;;16.20;99.90;;;;;;5016382;28;20236;-92
2021/06/11 01:08:06;;;;;;;22.13;13.70;;;16.20;99.90;;;;;;5032415;28;20226;-92
2021/06/11 01:10:32;;;;;;;27.43;14.20;;;16.20;99.90;;;;;;5027991;28;20330;-92
2021/06/11 01:12:58;;;;;;;26.07;14.40;;;16.20;99.90;;;;;;5026419;28;20187;-91
2021/06/11 01:15:24;;;;;;;22.77;15.57;;;16.10;99.90;;;;;;5012342;28;20760;-92
2021/06/11 01:17:52;;;;;;;26.93;15.63;;;16.10;99.90;;;;;;5015896;28;20229;-92
2021/06/11 01:20:20;;;;;;;28.67;16.17;;;16.10;99.90;;;;;;5037907;28;20241;-92
2021/06/11 01:23:22;;;;;;;23.93;13.07;;;16.10;99.90;;;;;;5017624;28;20361;-94
2021/06/11 01:26:18;;;;;;;22.47;13.40;;;16.10;99.90;;;;;;5032592;28;20233;-93
2021/06/11 01:28:44;;;;;;;24.07;13.23;;;16.00;99.90;;;;;;5048822;28;20248;-94
2021/06/11 01:31:11;;;;;;;23.77;14.87;;;15.90;99.90;;;;;;5014840;28;20218;-93
2021/06/11 01:33:38;;;;;;;26.77;14.50;;;15.90;99.90;;;;;;5017810;28;20203;-92
2021/06/11 01:36:11;;;;;;;29.13;16.23;;;15.90;99.90;;;;;;5032660;28;20701;-93
2021/06/11 01:38:41;;;;;;;22.57;14.87;;;15.90;99.90;;;;;;5031769;28;20329;-93
2021/06/11 01:41:13;;;;;;;28.00;15.53;;;15.90;99.90;;;;;;5032933;28;20221;-93
2021/06/11 01:43:40;;;;;;;22.43;14.93;;;15.90;99.90;;;;;;5031203;28;20254;-91
2021/06/11 01:46:11;;;;;;;25.73;15.17;;;15.90;99.90;;;;;;4999981;28;20228;-91
2021/06/11 01:48:39;;;;;;;23.80;15.53;;;15.90;99.90;;;;;;5033268;28;20189;-94
2021/06/11 01:51:07;;;;;;;28.47;16.53;;;15.90;99.90;;;;;;5032309;28;20233;-91
2021/06/11 01:53:35;;;;;;;28.80;17.07;;;15.90;99.90;;;;;;5032415;28;20210;-93
2021/06/11 01:56:02;;;;;;;32.47;16.83;;;15.80;99.90;;;;;;5014109;28;20221;-93
2021/06/11 01:58:29;;;;;;;31.07;16.17;;;15.80;99.90;;;;;;5014934;28;20857;-92
2021/06/11 02:00:55;;;;;;;27.73;16.50;;;15.80;99.90;;;;;;5033713;28;21012;-93
2021/06/11 02:03:23;;;;;;;24.83;15.80;;;15.80;99.90;;;;;;5035523;28;20185;-92
2021/06/11 02:05:52;;;;;;;31.03;16.37;;;15.80;99.90;;;;;;5035722;28;20225;-93
2021/06/11 02:08:19;;;;;;;26.67;15.03;;;15.80;99.90;;;;;;5037263;28;20297;-92
2021/06/11 02:10:45;;;;;;;25.93;14.60;;;15.80;99.90;;;;;;5033343;28;20226;-94
2021/06/11 02:13:11;;;;;;;28.50;15.60;;;15.80;99.90;;;;;;5019586;28;20225;-90
2021/06/11 02:15:37;;;;;;;29.07;16.03;;;15.80;99.90;;;;;;5035857;28;20280;-92
2021/06/11 02:18:04;;;;;;;30.20;15.77;;;15.80;99.90;;;;;;5035434;28;20797;-93
2021/06/11 02:20:30;;;;;;;29.37;17.73;;;15.80;99.90;;;;;;5017867;28;20353;-91
2021/06/11 02:22:56;;;;;;;28.40;16.00;;;15.80;99.90;;;;;;5035591;28;20233;-92
2021/06/11 02:25:27;;;;;;;28.23;16.33;;;15.90;99.90;;;;;;5033238;28;21220;-91
2021/06/11 02:27:55;;;;;;;33.57;16.70;;;15.90;99.90;;;;;;5034319;28;20240;-93
2021/06/11 02:30:22;;;;;;;29.87;15.93;;;15.80;99.90;;;;;;5036605;28;20178;-91
2021/06/11 02:32:48;;;;;;;27.73;15.73;;;15.80;99.90;;;;;;5035855;28;20229;-93
2021/06/11 02:35:25;;;;;;;27.70;16.10;;;15.80;99.90;;;;;;5033082;28;20229;-90
2021/06/11 02:37:54;;;;;;;26.23;13.83;;;15.80;99.90;;;;;;5034203;28;20225;-92
2021/06/11 02:40:20;;;;;;;30.47;15.50;;;15.70;99.90;;;;;;5034466;28;20217;-91
2021/06/11 02:42:57;;;;;;;30.70;15.97;;;15.80;99.90;;;;;;5035146;28;20190;-94
2021/06/11 02:45:27;;;;;;;30.03;15.43;;;15.80;99.90;;;;;;5025640;28;20234;-93
2021/06/11 02:48:05;;;;;;;59.90;17.50;;;15.70;99.90;;;;;;5034666;28;20270;-92
2021/06/11 02:50:40;;;;;;;27.87;15.97;;;15.70;99.90;;;;;;5035263;28;20214;-89
2021/06/11 02:53:08;;;;;;;27.60;15.77;;;15.70;99.90;;;;;;5033233;28;20691;-92
2021/06/11 02:55:36;;;;;;;33.57;17.90;;;15.70;99.90;;;;;;5035179;28;20952;-92
2021/06/11 02:58:13;;;;;;;35.03;18.73;;;15.70;99.90;;;;;;5035861;28;20214;-92
2021/06/11 03:00:41;;;;;;;33.10;17.40;;;15.70;99.90;;;;;;5049390;28;20182;-93
2021/06/11 03:03:23;;;;;;;29.37;16.87;;;15.70;99.90;;;;;;5035300;28;20211;-90
2021/06/11 03:05:55;;;;;;;30.73;17.20;;;15.70;99.90;;;;;;5034155;28;20230;-91
2021/06/11 03:08:28;;;;;;;30.80;17.30;;;15.60;99.90;;;;;;5035245;28;20214;-92
2021/06/11 03:10:59;;;;;;;28.23;14.50;;;15.60;99.90;;;;;;5033268;28;20740;-92
2021/06/11 03:13:29;;;;;;;32.10;16.20;;;15.60;99.90;;;;;;5051991;28;20857;-91
2021/06/11 03:15:57;;;;;;;35.23;16.60;;;15.60;99.90;;;;;;5033108;28;20254;-92
2021/06/11 03:18:44;;;;;;;34.03;17.10;;;15.60;99.90;;;;;;5035670;28;20175;-92
2021/06/11 03:21:39;;;;;;;35.33;18.23;;;15.60;99.90;;;;;;5033557;28;20222;-91
2021/06/11 03:24:11;;;;;;;30.13;15.60;;;15.60;99.90;;;;;;5025267;28;20230;-91
2021/06/11 03:26:48;;;;;;;31.67;17.00;;;15.60;99.90;;;;;;5032058;28;20230;-92
2021/06/11 03:29:18;;;;;;;32.17;15.77;;;15.70;99.90;;;;;;5051015;28;20221;-91
2021/06/11 03:31:52;;;;;;;39.43;18.97;;;15.70;99.90;;;;;;5032698;28;20222;-92
2021/06/11 03:34:24;;;;;;;33.93;16.77;;;15.70;99.90;;;;;;5034989;28;20214;-92
2021/06/11 03:36:53;;;;;;;33.27;18.00;;;15.80;99.90;;;;;;5034731;28;20182;-92
2021/06/11 03:39:25;;;;;;;36.50;18.40;;;15.80;99.90;;;;;;5036607;28;20178;-92
2021/06/11 03:41:52;;;;;;;33.70;18.00;;;15.80;99.90;;;;;;5033502;28;20213;-92
2021/06/11 03:44:19;;;;;;;36.90;19.23;;;15.80;99.90;;;;;;5033361;28;20709;-93
2021/06/11 03:46:47;;;;;;;36.70;16.43;;;15.80;99.90;;;;;;5018062;28;20222;-91
2021/06/11 03:49:14;;;;;;;28.23;15.13;;;15.90;99.90;;;;;;5030080;28;20284;-92
2021/06/11 03:51:42;;;;;;;31.27;17.93;;;15.90;99.90;;;;;;5032431;28;20268;-90
2021/06/11 03:54:12;;;;;;;35.00;18.37;;;16.00;99.90;;;;;;5036532;28;20218;-93
2021/06/11 03:56:39;;;;;;;37.03;18.70;;;16.00;99.90;;;;;;5031810;28;20225;-92
2021/06/11 03:59:11;;;;;;;32.50;16.93;;;16.00;99.90;;;;;;5032186;28;20222;-92
2021/06/11 04:01:42;;;;;;;34.47;16.83;;;16.00;99.90;;;;;;5014971;28;20353;-92
2021/06/11 04:04:08;;;;;;;36.70;16.97;;;16.00;99.90;;;;;;5032487;28;21206;-93
2021/06/11 04:06:41;;;;;;;32.27;17.33;;;16.10;99.90;;;;;;5017446;28;20231;-93
2021/06/11 04:09:08;;;;;;;26.53;14.43;;;16.10;99.90;;;;;;5033216;28;20211;-92
2021/06/11 04:11:45;;;;;;;32.30;16.70;;;16.20;99.90;;;;;;5033409;28;20217;-92
2021/06/11 04:14:24;;;;;;;40.67;19.40;;;16.30;99.90;;;;;;5032036;28;20218;-93
2021/06/11 04:16:53;;;;;;;33.03;17.33;;;16.40;99.90;;;;;;5030929;28;20280;-92
2021/06/11 04:19:33;;;;;;;30.43;16.80;;;16.40;99.90;;;;;;5034437;28;20831;-92
2021/06/11 04:22:02;;;;;;;33.13;17.50;;;16.50;99.90;;;;;;5032507;28;20197;-92
2021/06/11 04:24:33;;;;;;;32.57;17.07;;;16.50;99.90;;;;;;5035118;28;20276;-92
2021/06/11 04:27:00;;;;;;;40.33;20.20;;;16.60;99.90;;;;;;5032882;28;20240;-89
2021/06/11 04:29:28;;;;;;;33.77;17.40;;;16.70;99.90;;;;;;5015368;28;20214;-91
2021/06/11 04:31:54;;;;;;;33.27;16.80;;;16.80;99.90;;;;;;5014210;28;20222;-93
2021/06/11 04:34:20;;;;;;;37.17;17.57;;;16.90;99.90;;;;;;5043014;28;20218;-93
2021/06/11 04:36:48;;;;;;;33.13;18.57;;;17.00;99.90;;;;;;5015837;28;20190;-90
2021/06/11 04:39:14;;;;;;;40.83;18.77;;;17.10;99.90;;;;;;5032296;28;20214;-91
2021/06/11 04:41:40;;;;;;;37.33;17.87;;;17.20;99.90;;;;;;5034615;28;20275;-91
2021/06/11 04:44:07;;;;;;;40.87;18.60;;;17.30;99.90;;;;;;5031424;28;20216;-90
2021/06/11 04:46:34;;;;;;;36.07;18.80;;;17.50;99.90;;;;;;5011885;28;20748;-93
2021/06/11 04:49:00;;;;;;;36.53;17.93;;;17.60;99.90;;;;;;5030238;28;20183;-93
2021/06/11 04:51:27;;;;;;;26.13;15.57;;;17.70;99.90;;;;;;5031307;28;20634;-92
2021/06/11 04:53:53;;;;;;;36.87;18.90;;;17.80;99.90;;;;;;5030533;28;20283;-90
2021/06/11 04:56:19;;;;;;;35.43;17.87;;;17.90;99.90;;;;;;5029143;28;20229;-90
2021/06/11 04:58:49;;;;;;;37.17;17.57;;;18.20;99.90;;;;;;5032060;28;20241;-92
2021/06/11 05:01:15;;;;;;;37.10;18.37;;;18.40;99.90;;;;;;5030615;28;20222;-93
2021/06/11 05:03:41;;;;;;;38.13;18.33;;;18.40;99.90;;;;;;5034492;28;20218;-92
2021/06/11 05:06:07;;;;;;;40.50;18.07;;;18.40;99.90;;;;;;5028004;28;20224;-94
2021/06/11 05:08:33;;;;;;;29.30;16.60;;;18.50;99.90;;;;;;5014647;28;20569;-94
2021/06/11 05:11:01;;;;;;;32.07;16.30;;;18.50;99.90;;;;;;5033179;28;20368;-92
2021/06/11 05:13:27;;;;;;;28.03;15.00;;;18.70;99.90;;;;;;5030894;28;20268;-91
2021/06/11 05:15:53;;;;;;;35.17;17.80;;;18.70;99.90;;;;;;5032333;28;20217;-91
2021/06/11 05:18:19;;;;;;;35.27;16.57;;;18.90;99.90;;;;;;5016895;28;20185;-91
2021/06/11 05:20:45;;;;;;;31.97;16.30;;;18.80;99.90;;;;;;5015099;28;21209;-93
2021/06/11 05:23:11;;;;;;;33.53;15.00;;;18.50;99.90;;;;;;5030170;28;20218;-90
2021/06/11 05:25:38;;;;;;;31.87;15.07;;;18.40;99.90;;;;;;5014508;28;20291;-90
2021/06/11 05:28:04;;;;;;;27.30;15.00;;;18.40;99.90;;;;;;5014912;28;20237;-88
2021/06/11 05:30:30;;;;;;;25.67;12.87;;;18.60;99.90;;;;;;5031011;28;20218;-87
2021/06/11 05:32:56;;;;;;;25.37;12.73;;;18.70;99.90;;;;;;5032220;28;20245;-90
2021/06/11 05:35:22;;;;;;;29.17;14.63;;;19.00;99.90;;;;;;5035096;28;20689;-85
2021/06/11 05:37:49;;;;;;;26.63;13.47;;;18.90;99.90;;;;;;5019157;28;20241;-88
2021/06/11 05:40:16;;;;;;;27.27;14.43;;;19.10;99.90;;;;;;5033397;28;20218;-87
2021/06/11 05:42:42;;;;;;;22.97;12.53;;;19.00;99.90;;;;;;5033793;28;20632;-88
2021/06/11 05:45:08;;;;;;;26.40;14.93;;;19.10;99.90;;;;;;5020184;28;20635;-89
2021/06/11 05:47:39;;;;;;;30.63;13.60;;;19.00;99.90;;;;;;5038883;28;20294;-90
2021/06/11 05:50:06;;;;;;;23.57;12.73;;;18.90;99.90;;;;;;5036698;28;20301;-93
2021/06/11 05:52:33;;;;;;;26.73;15.43;;;19.10;99.90;;;;;;5035135;28;20221;-91
2021/06/11 05:54:59;;;;;;;27.13;14.30;;;19.00;99.90;;;;;;5017349;28;20190;-90
2021/06/11 05:57:25;;;;;;;30.13;15.17;;;19.00;99.90;;;;;;5036535;28;20642;-94
2021/06/11 05:59:54;;;;;;;27.13;13.60;;;19.20;99.90;;;;;;5035992;28;20357;-92
2021/06/11 06:02:21;;;;;;;27.30;13.97;;;19.20;99.90;;;;;;5032625;28;20681;-93
2021/06/11 06:04:47;;;;;;;25.30;14.73;;;19.10;99.90;;;;;;5038394;28;20851;-95
2021/06/11 06:07:13;;;;;;;28.40;14.03;;;19.10;99.90;;;;;;5037682;28;20222;-92
2021/06/11 06:09:39;;;;;;;28.37;14.37;;;19.00;99.90;;;;;;5036228;28;20596;-93
2021/06/11 06:12:05;;;;;;;26.60;11.30;;;18.80;99.90;;;;;;5035450;28;20205;-93
2021/06/11 06:14:33;;;;;;;24.73;11.90;;;18.70;99.90;;;;;;5035603;28;22270;-94
2021/06/11 06:17:01;;;;;;;31.70;13.63;;;18.70;99.90;;;;;;5018466;28;20230;-93
2021/06/11 06:19:27;;;;;;;24.80;12.77;;;18.80;99.90;;;;;;5051218;28;20714;-93
2021/06/11 06:21:59;;;;;;;27.57;13.70;;;18.80;99.90;;;;;;5029002;28;20257;-93
2021/06/11 06:24:36;;;;;;;22.80;11.27;;;18.90;99.90;;;;;;5039189;28;20197;-94
2021/06/11 06:27:03;;;;;;;24.77;13.17;;;18.80;99.90;;;;;;5035286;28;20317;-93
2021/06/11 06:29:29;;;;;;;24.83;12.87;;;19.10;99.90;;;;;;5033813;28;20210;-92
2021/06/11 06:31:55;;;;;;;18.10;9.53;;;19.30;99.90;;;;;;5069776;28;20206;-88
2021/06/11 06:34:21;;;;;;;21.47;9.63;;;19.20;99.90;;;;;;5034607;28;20225;-89
2021/06/11 06:36:47;;;;;;;25.23;10.07;;;19.30;99.90;;;;;;5034994;28;20279;-88
2021/06/11 06:39:12;;;;;;;19.80;10.90;;;19.40;99.90;;;;;;5018266;28;20999;-88
2021/06/11 06:41:38;;;;;;;19.53;10.03;;;19.60;99.90;;;;;;5016299;28;20221;-89
2021/06/11 06:44:04;;;;;;;17.43;9.87;;;19.80;99.90;;;;;;5017081;28;20231;-88
2021/06/11 06:46:32;;;;;;;17.97;9.13;;;19.90;99.90;;;;;;5015384;28;20328;-88
2021/06/11 06:48:58;;;;;;;23.40;10.60;;;20.10;99.90;;;;;;5032169;28;20282;-88
2021/06/11 06:51:26;;;;;;;20.47;11.03;;;20.20;99.90;;;;;;5018526;28;20213;-90
2021/06/11 06:53:54;;;;;;;18.17;10.70;;;20.20;99.90;;;;;;5015771;28;20222;-89
2021/06/11 06:56:23;;;;;;;16.60;8.73;;;20.20;99.90;;;;;;5019209;28;20241;-89
2021/06/11 06:58:49;;;;;;;18.97;9.07;;;20.20;99.90;;;;;;5013183;28;21020;-89
2021/06/11 07:01:15;;;;;;;18.33;9.37;;;20.30;99.90;;;;;;5029285;28;20214;-90
2021/06/11 07:03:40;;;;;;;20.20;9.30;;;20.70;99.90;;;;;;5012007;28;20734;-93
2021/06/11 07:06:06;;;;;;;16.83;9.10;;;20.70;99.90;;;;;;5010799;28;21162;-90
2021/06/11 07:08:32;;;;;;;19.53;10.63;;;20.60;99.90;;;;;;5006932;28;21151;-91
2021/06/11 07:10:58;;;;;;;16.67;9.43;;;20.70;99.90;;;;;;5018561;28;20221;-91
2021/06/11 07:13:25;;;;;;;20.20;10.13;;;21.00;99.90;;;;;;5018714;28;20699;-88
2021/06/11 07:15:51;;;;;;;13.80;8.23;;;22.40;99.90;;;;;;5019234;28;20186;-92
2021/06/11 07:18:17;;;;;;;16.23;7.93;;;23.40;99.90;;;;;;5016309;28;20183;-88
2021/06/11 07:20:43;;;;;;;18.93;7.90;;;23.90;99.90;;;;;;5032602;28;20210;-89
2021/06/11 07:23:10;;;;;;;12.87;7.03;;;23.50;99.90;;;;;;5034700;28;20253;-91
2021/06/11 07:25:36;;;;;;;13.10;7.10;;;22.60;99.90;;;;;;5030848;28;20218;-91
2021/06/11 07:28:02;;;;;;;11.00;7.27;;;22.10;99.90;;;;;;5017474;28;20190;-88
2021/06/11 07:30:28;;;;;;;13.07;7.23;;;21.80;99.90;;;;;;5015509;28;21158;-90
2021/06/11 07:32:54;;;;;;;13.27;7.80;;;21.50;99.90;;;;;;5017002;28;20218;-87
2021/06/11 07:35:20;;;;;;;13.30;6.97;;;21.10;99.90;;;;;;5032040;28;20230;-88
2021/06/11 07:37:46;;;;;;;11.47;6.20;;;20.80;99.90;;;;;;5032862;28;20232;-88
2021/06/11 07:40:13;;;;;;;12.93;7.17;;;20.80;99.90;;;;;;5030591;28;20604;-88
2021/06/11 07:42:39;;;;;;;13.10;6.93;;;20.70;99.90;;;;;;5009809;28;20812;-87
2021/06/11 07:45:06;;;;;;;12.80;7.63;;;20.70;99.90;;;;;;5012222;28;20308;-87
2021/06/11 07:47:32;;;;;;;12.13;7.43;;;21.00;99.90;;;;;;5012450;28;20213;-89
2021/06/11 07:49:58;;;;;;;10.00;6.33;;;21.60;99.90;;;;;;5009975;28;20218;-88
2021/06/11 07:52:24;;;;;;;10.63;6.50;;;21.80;99.90;;;;;;5026964;28;20222;-90
2021/06/11 07:54:50;;;;;;;12.40;7.53;;;22.50;99.90;;;;;;5013415;28;20194;-88
2021/06/11 07:57:15;;;;;;;11.10;6.47;;;23.30;99.90;;;;;;5015272;28;20272;-88
2021/06/11 07:59:42;;;;;;;11.00;7.30;;;24.10;99.90;;;;;;5016268;28;20218;-85
2021/06/11 08:02:08;;;;;;;10.63;6.78;;;24.60;99.90;;;;;;5015477;28;20217;-88
2021/06/11 08:04:34;;;;;;;15.00;7.55;;;25.20;99.90;;;;;;5031742;28;20297;-86
2021/06/11 08:06:59;;;;;;;10.15;6.20;;;25.40;99.90;;;;;;5015182;28;20641;-87
2021/06/11 08:09:29;;;;;;;10.73;7.22;;;25.30;99.90;;;;;;5016341;28;20186;-86
2021/06/11 08:11:55;;;;;;;11.13;7.57;;;24.20;99.90;;;;;;5016239;28;20260;-86
2021/06/11 08:14:22;;;;;;;9.73;6.68;;;25.80;99.90;;;;;;5033508;28;20748;-85
2021/06/11 08:16:48;;;;;;;7.68;5.88;;;27.40;99.90;;;;;;5032110;28;20226;-86
2021/06/11 08:19:14;;;;;;;8.55;6.97;;;27.70;99.90;;;;;;5016000;28;20742;-86
2021/06/11 08:21:40;;;;;;;10.32;6.85;;;27.30;99.90;;;;;;5016674;28;20190;-86
2021/06/11 08:24:05;;;;;;;11.20;6.60;;;28.30;99.90;;;;;;5032240;28;20582;-87
2021/06/11 08:26:31;;;;;;;9.90;7.00;;;28.90;99.90;;;;;;5030243;28;20230;-86
2021/06/11 08:28:57;;;;;;;10.60;6.20;;;27.90;99.90;;;;;;5000072;28;20221;-85
2021/06/11 08:31:23;;;;;;;9.43;6.07;;;28.40;99.90;;;;;;5033647;28;20226;-86
2021/06/11 08:33:48;;;;;;;10.40;6.63;;;27.40;99.90;;;;;;5012985;28;20530;-88
2021/06/11 08:36:15;;;;;;;8.20;5.82;;;27.20;99.90;;;;;;5028896;28;20187;-86
2021/06/11 08:38:41;;;;;;;8.73;6.47;;;27.30;99.90;;;;;;5027305;28;20250;-88
2021/06/11 08:41:12;;;;;;;9.63;6.53;;;26.10;99.90;;;;;;5004097;28;20602;-88
2021/06/11 08:43:38;;;;;;;9.43;6.47;;;26.30;99.90;;;;;;5043872;28;20257;-88
2021/06/11 08:46:05;;;;;;;8.27;6.30;;;26.30;99.90;;;;;;5013779;28;20221;-87
2021/06/11 08:48:30;;;;;;;8.60;6.53;;;25.90;99.90;;;;;;5009179;28;20191;-88
2021/06/11 08:50:56;;;;;;;9.07;6.72;;;26.10;99.90;;;;;;5027759;28;20708;-87
2021/06/11 08:53:22;;;;;;;10.50;7.13;;;27.50;99.90;;;;;;5011092;28;20233;-87
2021/06/11 08:55:48;;;;;;;11.25;7.07;;;27.70;99.90;;;;;;5018057;28;20225;-89
2021/06/11 08:58:14;;;;;;;9.20;6.03;;;28.60;99.90;;;;;;5011858;28;21047;-86
2021/06/11 09:00:41;;;;;;;8.35;6.40;;;28.40;99.90;;;;;;5012527;28;20195;-87
2021/06/11 09:03:17;;;;;;;9.20;6.88;;;27.70;99.90;;;;;;5026500;28;20232;-88
2021/06/11 09:06:12;;;;;;;8.85;6.38;;;27.40;99.90;;;;;;5043790;28;20224;-86
2021/06/11 09:08:38;;;;;;;9.57;6.55;;;27.60;99.90;;;;;;5025233;28;20218;-88
2021/06/11 09:11:10;;;;;;;9.35;6.93;;;27.80;99.90;;;;;;5029926;28;20224;-87
2021/06/11 09:13:36;;;;;;;9.68;7.68;;;27.80;99.90;;;;;;5047205;28;20995;-88
2021/06/11 09:16:12;;;;;;;9.75;7.10;;;28.40;99.90;;;;;;5029938;28;20191;-88
2021/06/11 09:18:47;;;;;;;10.27;6.65;;;27.90;99.90;;;;;;5032551;28;20225;-87
2021/06/11 09:21:25;;;;;;;9.05;6.75;;;27.90;99.90;;;;;;5032494;28;20245;-85
2021/06/11 09:24:23;;;;;;;10.75;6.88;;;27.30;99.90;;;;;;5030563;28;20231;-89
2021/06/11 09:26:58;;;;;;;10.20;7.55;;;26.90;99.90;;;;;;5029811;28;20344;-86
2021/06/11 09:29:29;;;;;;;8.02;5.97;;;27.80;99.90;;;;;;5030279;28;20229;-89
2021/06/11 09:32:14;;;;;;;9.18;7.22;;;27.50;99.90;;;;;;5029832;28;20215;-88
2021/06/11 09:34:42;;;;;;;9.38;7.38;;;26.60;99.90;;;;;;5029814;28;20214;-88
2021/06/11 09:37:09;;;;;;;8.55;7.25;;;27.00;99.90;;;;;;5015542;28;20193;-87
2021/06/11 09:39:45;;;;;;;12.05;6.82;;;26.10;99.90;;;;;;5031958;28;20237;-87
2021/06/11 09:42:13;;;;;;;7.75;6.07;;;26.10;99.90;;;;;;5048307;28;20245;-85
2021/06/11 09:44:39;;;;;;;9.93;6.85;;;25.90;99.90;;;;;;5030130;28;20210;-89
2021/06/11 09:47:08;;;;;;;7.97;5.82;;;26.60;99.90;;;;;;5028690;28;20235;-87
2021/06/11 09:49:42;;;;;;;7.93;7.13;;;26.90;99.90;;;;;;5029859;28;20800;-87
2021/06/11 09:52:09;;;;;;;8.45;6.50;;;28.40;99.90;;;;;;5014340;28;20227;-86
2021/06/11 09:54:35;;;;;;;7.65;6.78;;;29.10;99.90;;;;;;5032307;28;20194;-88
2021/06/11 09:57:18;;;;;;;9.70;6.82;;;29.40;99.90;;;;;;5014185;28;20222;-88
2021/06/11 09:59:45;;;;;;;8.88;6.63;;;30.10;99.90;;;;;;5029761;28;20572;-87
2021/06/11 10:02:15;;;;;;;9.70;6.85;;;29.10;99.90;;;;;;5047073;28;20213;-88
2021/06/11 10:04:43;;;;;;;9.57;6.97;;;29.10;99.90;;;;;;5014126;28;20532;-87
2021/06/11 10:07:11;;;;;;;10.07;7.28;;;29.20;99.90;;;;;;5032156;28;20330;-86
2021/06/11 10:09:37;;;;;;;7.97;6.75;;;28.80;99.90;;;;;;5032434;28;20187;-88
2021/06/11 10:12:04;;;;;;;9.38;7.05;;;29.80;99.90;;;;;;5031323;28;20221;-87
2021/06/11 10:14:30;;;;;;;10.73;7.57;;;30.00;99.90;;;;;;5032300;28;20301;-87
2021/06/11 10:16:56;;;;;;;9.38;6.40;;;30.10;99.90;;;;;;5014146;28;20222;-87
2021/06/11 10:19:24;;;;;;;8.57;6.32;;;29.20;99.90;;;;;;5016348;28;20717;-87
2021/06/11 10:21:50;;;;;;;10.88;6.68;;;28.50;99.90;;;;;;5017294;28;20203;-88
2021/06/11 10:24:17;;;;;;;9.32;6.78;;;27.80;99.90;;;;;;5017643;28;20195;-90
2021/06/11 10:26:43;;;;;;;9.18;7.18;;;27.50;99.90;;;;;;5033583;28;20229;-87
2021/06/11 10:29:14;;;;;;;9.45;6.82;;;26.80;99.90;;;;;;5018174;28;20257;-87
2021/06/11 10:31:41;;;;;;;9.98;7.25;;;26.00;99.90;;;;;;5036659;28;20325;-86
2021/06/11 10:34:06;;;;;;;8.93;7.35;;;25.90;99.90;;;;;;5035209;28;20179;-87
2021/06/11 10:36:36;;;;;;;9.23;6.43;;;25.50;99.90;;;;;;5035694;28;20186;-87
2021/06/11 10:39:16;;;;;;;10.27;7.35;;;24.80;99.90;;;;;;5033579;28;20285;-88
2021/06/11 10:42:02;;;;;;;9.32;6.88;;;24.70;99.90;;;;;;5050314;28;20222;-88
2021/06/11 10:44:31;;;;;;;8.48;6.45;;;24.80;99.90;;;;;;5034818;28;20249;-88
2021/06/11 10:47:15;;;;;;;8.70;6.57;;;24.20;99.90;;;;;;5034363;28;20279;-86
2021/06/11 10:50:06;;;;;;;10.73;6.95;;;24.00;99.90;;;;;;5049489;28;20228;-86
2021/06/11 10:52:38;;;;;;;12.35;8.23;;;24.10;99.90;;;;;;5051533;28;20232;-87
2021/06/11 10:55:19;;;;;;;10.93;7.70;;;24.00;99.90;;;;;;5033826;28;20193;-86
2021/06/11 10:57:55;;;;;;;10.95;6.82;;;24.10;99.90;;;;;;5036006;28;20320;-87
2021/06/11 11:00:26;;;;;;;12.20;8.00;;;23.30;99.90;;;;;;5033722;28;20214;-87
2021/06/11 11:02:53;;;;;;;11.88;7.93;;;22.70;99.90;;;;;;5033276;28;20218;-86
2021/06/11 11:05:28;;;;;;;11.23;7.30;;;23.00;99.90;;;;;;5037144;28;20249;-86
2021/06/11 11:07:54;;;;;;;10.45;7.90;;;23.20;99.90;;;;;;5035046;28;20755;-86
2021/06/11 11:10:44;;;;;;;11.23;7.75;;;23.30;99.90;;;;;;5033798;28;20214;-89
2021/06/11 11:13:14;;;;;;;12.18;7.32;;;23.40;99.90;;;;;;5036616;28;20218;-87
2021/06/11 11:15:51;;;;;;;11.48;7.00;;;23.50;99.90;;;;;;5035769;28;20556;-89
2021/06/11 11:18:41;;;;;;;11.20;6.82;;;23.50;99.90;;;;;;5034443;28;20198;-88
2021/06/11 11:21:38;;;;;;;12.52;9.15;;;23.20;99.90;;;;;;5041545;28;20272;-87
2021/06/11 11:24:12;;;;;;;10.88;7.57;;;23.60;99.90;;;;;;5028450;28;20214;-87
2021/06/11 11:26:49;;;;;;;13.30;8.80;;;23.50;99.90;;;;;;5031767;28;20319;-86
2021/06/11 11:29:17;;;;;;;13.13;8.02;;;23.50;99.90;;;;;;5032525;28;20225;-85
2021/06/11 11:31:45;;;;;;;10.75;7.35;;;23.90;99.90;;;;;;5033639;28;21126;-88
2021/06/11 11:34:11;;;;;;;13.32;7.35;;;24.30;99.90;;;;;;5016307;28;20754;-88
2021/06/11 11:36:37;;;;;;;8.55;6.57;;;24.30;99.90;;;;;;5031793;28;20194;-87
2021/06/11 11:39:09;;;;;;;12.32;6.78;;;24.50;99.90;;;;;;5032709;28;20217;-87
2021/06/11 11:41:35;;;;;;;10.95;7.55;;;24.20;99.90;;;;;;5034733;28;20214;-88
2021/06/11 11:44:02;;;;;;;7.63;5.85;;;23.90;99.90;;;;;;5033088;28;20237;-87
2021/06/11 11:46:28;;;;;;;9.35;7.32;;;24.00;99.90;;;;;;5017903;28;20333;-87
2021/06/11 11:48:53;;;;;;;8.77;6.25;;;24.00;99.90;;;;;;5033924;28;20189;-87
2021/06/11 11:51:19;;;;;;;12.82;6.13;;;24.10;99.90;;;;;;5033215;28;20202;-87
2021/06/11 11:53:46;;;;;;;11.77;7.50;;;24.10;99.90;;;;;;5016227;28;20218;-87
2021/06/11 11:56:12;;;;;;;10.25;6.32;;;24.50;99.90;;;;;;5017337;28;20272;-86
2021/06/11 11:58:38;;;;;;;11.75;7.75;;;24.30;99.90;;;;;;5031839;28;20325;-87
2021/06/11 12:01:04;;;;;;;13.02;7.63;;;23.80;99.90;;;;;;4998805;28;20183;-87
2021/06/11 12:03:30;;;;;;;10.77;6.53;;;23.30;99.90;;;;;;5034178;28;20221;-88
2021/06/11 12:05:55;;;;;;;12.48;9.05;;;22.50;99.90;;;;;;5016613;28;20238;-88
2021/06/11 12:08:21;;;;;;;14.93;8.35;;;22.50;99.90;;;;;;5034543;28;20356;-86
2021/06/11 12:10:47;;;;;;;14.27;8.05;;;22.50;99.90;;;;;;5016554;28;20233;-88
2021/06/11 12:13:13;;;;;;;8.15;6.20;;;22.40;99.90;;;;;;5032748;28;20226;-87
2021/06/11 12:15:39;;;;;;;15.27;9.35;;;22.30;99.90;;;;;;5035396;28;20316;-87
2021/06/11 12:18:05;;;;;;;12.93;7.90;;;22.20;99.90;;;;;;5019660;28;20229;-87
2021/06/11 12:20:33;;;;;;;10.70;7.60;;;22.30;99.90;;;;;;5033154;28;20233;-90
2021/06/11 12:23:03;;;;;;;11.55;7.57;;;22.20;99.90;;;;;;5015727;28;20222;-90
2021/06/11 12:25:29;;;;;;;13.23;8.13;;;22.00;99.90;;;;;;5049242;28;20234;-87
2021/06/11 12:27:55;;;;;;;16.07;9.13;;;22.20;99.90;;;;;;5031956;28;20240;-88
2021/06/11 12:30:21;;;;;;;14.17;8.70;;;22.90;99.90;;;;;;4998421;28;20186;-88
2021/06/11 12:32:47;;;;;;;13.23;7.87;;;23.00;99.90;;;;;;5014305;28;20313;-88
2021/06/11 12:35:14;;;;;;;14.55;8.68;;;23.10;99.90;;;;;;5032042;28;20218;-88
2021/06/11 12:37:40;;;;;;;12.33;8.13;;;23.10;99.90;;;;;;5030640;28;20217;-88
2021/06/11 12:40:06;;;;;;;11.52;6.55;;;23.30;99.90;;;;;;4998204;28;20190;-88
2021/06/11 12:42:35;;;;;;;12.20;7.60;;;23.60;99.90;;;;;;5030352;28;20253;-87